Terminal Aerodrome Forecast
Issued by NWS

Home | Current Version | Previous Version | Text Only | Print | Product List | Glossary On
Versions: 1 2 3 4 5 6 7 8 9 10 11 12 13 14 15 16 17 18 19
000
FTUS42 KMLB 011559 AAA
TAFSFB
TAF AMD
KSFB 011559Z 0116/0212 08010KT P6SM BKN012 OVC020
     FM011800 12010KT P6SM BKN040
      TEMPO 0118/0121 3SM SHRA BKN025
     FM020000 10006KT P6SM SCT030 SCT060 BKN100
     FM020600 01003KT 3SM BR OVC004
      TEMPO 0208/0212 1/2SM FG=

USA.gov is the U.S. government's official web portal to all federal, state and local government web resources and services.